createdAt,value
2023-01-29T00:00:15.846Z,2.55
2023-01-29T00:03:11.818Z,2.52
2023-01-29T00:05:43.350Z,2.46
2023-01-29T00:08:15.205Z,2.61
2023-01-29T00:10:46.669Z,2.50
2023-01-29T00:13:21.386Z,2.70
2023-01-29T00:15:57.874Z,2.71
2023-01-29T00:18:30.567Z,2.59
2023-01-29T00:21:02.047Z,2.48
2023-01-29T00:23:33.812Z,1.98
2023-01-29T00:26:05.510Z,1.92
2023-01-29T00:28:40.171Z,2.20
2023-01-29T00:31:14.791Z,2.69
2023-01-29T00:33:46.751Z,2.21
2023-01-29T00:36:19.797Z,1.88
2023-01-29T00:38:59.037Z,2.43
2023-01-29T00:41:45.749Z,2.12
2023-01-29T00:44:34.097Z,2.33
2023-01-29T00:47:27.602Z,2.46
2023-01-29T00:50:09.273Z,2.46
2023-01-29T00:52:44.259Z,1.93
2023-01-29T00:55:19.429Z,1.99
2023-01-29T00:57:53.518Z,2.06
2023-01-29T01:00:28.726Z,2.06
2023-01-29T01:03:06.820Z,1.82
2023-01-29T01:05:40.213Z,1.61
2023-01-29T01:08:27.033Z,1.75
2023-01-29T01:11:06.090Z,1.39
2023-01-29T01:13:40.880Z,1.61
2023-01-29T01:16:21.198Z,1.54
2023-01-29T01:18:53.116Z,1.86
2023-01-29T01:21:25.363Z,2.23
2023-01-29T01:23:56.996Z,2.15
2023-01-29T01:26:29.401Z,1.73
2023-01-29T01:29:03.015Z,1.63
2023-01-29T01:31:42.813Z,1.53
2023-01-29T01:34:14.820Z,1.61
2023-01-29T01:36:47.407Z,1.67
2023-01-29T01:39:25.843Z,1.93
2023-01-29T01:42:03.951Z,1.54
2023-01-29T01:45:04.944Z,1.87
2023-01-29T01:47:45.347Z,2.01
2023-01-29T01:50:24.122Z,1.30
2023-01-29T01:53:01.224Z,1.54
2023-01-29T01:55:38.851Z,1.98
2023-01-29T01:58:21.244Z,1.79
2023-01-29T02:00:58.061Z,1.42
2023-01-29T02:03:49.688Z,2.08
2023-01-29T02:06:33.668Z,1.97
2023-01-29T02:09:24.492Z,1.99
2023-01-29T02:11:56.387Z,2.33
2023-01-29T02:14:28.744Z,1.79
2023-01-29T02:17:00.656Z,2.05
2023-01-29T02:19:45.575Z,2.07
2023-01-29T02:22:33.318Z,1.81
2023-01-29T02:25:23.973Z,1.89
2023-01-29T02:28:28.280Z,2.28
2023-01-29T02:31:12.642Z,2.31
2023-01-29T02:33:58.488Z,1.99
2023-01-29T02:36:38.734Z,2.38
2023-01-29T02:39:20.758Z,1.94
2023-01-29T02:42:03.200Z,2.02
2023-01-29T02:44:41.855Z,2.11
2023-01-29T02:47:24.903Z,2.22
2023-01-29T02:50:04.251Z,2.55
2023-01-29T02:52:43.729Z,2.56
2023-01-29T02:55:19.369Z,2.59
2023-01-29T02:57:54.740Z,2.68
2023-01-29T03:00:31.272Z,2.68
2023-01-29T03:03:11.854Z,2.57
2023-01-29T03:05:51.569Z,2.60
2023-01-29T03:08:37.096Z,2.05
2023-01-29T03:11:14.043Z,2.29
2023-01-29T03:13:51.077Z,2.32
2023-01-29T03:16:28.827Z,2.66
2023-01-29T03:19:11.296Z,2.02
2023-01-29T03:22:02.171Z,1.99
2023-01-29T03:24:52.993Z,1.98
2023-01-29T03:27:42.058Z,2.13
2023-01-29T03:30:31.139Z,2.09
2023-01-29T03:33:07.250Z,2.14
2023-01-29T03:35:48.898Z,1.90
2023-01-29T03:38:21.012Z,1.65
2023-01-29T03:40:56.697Z,1.77
2023-01-29T03:43:37.627Z,2.22
2023-01-29T03:46:19.255Z,2.59
2023-01-29T03:48:59.371Z,2.47
2023-01-29T03:51:42.239Z,2.55
2023-01-29T03:54:22.136Z,2.16
2023-01-29T03:57:03.090Z,2.36
2023-01-29T03:59:42.188Z,1.97
2023-01-29T04:02:28.293Z,1.81
2023-01-29T04:05:05.614Z,2.44
2023-01-29T04:07:43.987Z,2.88
2023-01-29T04:10:20.761Z,2.79
2023-01-29T04:12:58.674Z,2.60
2023-01-29T04:15:35.458Z,2.74
2023-01-29T04:18:07.786Z,2.80
2023-01-29T04:20:40.460Z,3.08
2023-01-29T04:23:25.966Z,2.42
2023-01-29T04:26:08.409Z,2.35
2023-01-29T04:28:56.387Z,2.29
2023-01-29T04:31:36.136Z,2.03
2023-01-29T04:34:18.250Z,2.15
2023-01-29T04:37:03.537Z,2.39
2023-01-29T04:39:47.353Z,2.78
2023-01-29T04:42:28.447Z,2.65
2023-01-29T04:45:06.996Z,2.38
2023-01-29T04:47:48.206Z,2.57
2023-01-29T04:50:25.648Z,2.33
2023-01-29T04:53:04.693Z,1.74
2023-01-29T04:55:46.688Z,2.02
2023-01-29T04:58:29.904Z,2.57
2023-01-29T05:01:03.337Z,2.68
2023-01-29T05:03:37.860Z,2.76
2023-01-29T05:06:11.417Z,2.64
2023-01-29T05:08:44.606Z,2.45
2023-01-29T05:11:21.773Z,2.16
2023-01-29T05:13:54.379Z,1.83
2023-01-29T05:16:30.011Z,1.36
2023-01-29T05:19:03.683Z,1.65
2023-01-29T05:21:36.218Z,2.01
2023-01-29T05:24:14.534Z,1.77
2023-01-29T05:27:04.977Z,2.00
2023-01-29T05:29:36.933Z,2.23
2023-01-29T05:32:09.309Z,2.50
2023-01-29T05:34:41.500Z,2.52
2023-01-29T05:37:14.188Z,2.47
2023-01-29T05:39:45.987Z,2.53
2023-01-29T05:42:20.967Z,2.56
2023-01-29T05:44:52.962Z,2.75
2023-01-29T05:47:25.688Z,2.59
2023-01-29T05:49:57.410Z,2.51
2023-01-29T05:52:31.824Z,2.24
2023-01-29T05:55:03.458Z,1.90
2023-01-29T05:57:38.421Z,1.93
2023-01-29T06:00:13.499Z,2.18
2023-01-29T06:02:45.804Z,1.84
2023-01-29T06:05:27.093Z,1.27
2023-01-29T06:07:59.399Z,2.07
2023-01-29T06:10:31.491Z,2.45
2023-01-29T06:13:07.468Z,2.52
2023-01-29T06:15:42.438Z,2.79
2023-01-29T06:18:14.898Z,2.67
2023-01-29T06:20:47.028Z,2.81
2023-01-29T06:23:19.567Z,2.52
2023-01-29T06:25:51.578Z,2.08
2023-01-29T06:28:29.027Z,2.26
2023-01-29T06:31:20.940Z,2.48
2023-01-29T06:33:53.877Z,2.38
2023-01-29T06:36:25.770Z,1.77
2023-01-29T06:38:57.728Z,1.39
2023-01-29T06:41:30.206Z,1.32
2023-01-29T06:44:05.048Z,1.68
2023-01-29T06:46:36.803Z,1.75
2023-01-29T06:49:08.893Z,1.47
2023-01-29T06:51:40.850Z,1.84
2023-01-29T06:54:13.458Z,1.90
2023-01-29T06:56:45.477Z,2.25
2023-01-29T06:59:20.377Z,2.03
2023-01-29T07:01:52.130Z,1.93
2023-01-29T07:04:24.557Z,2.39
2023-01-29T07:06:56.527Z,2.20
2023-01-29T07:09:28.816Z,2.33
2023-01-29T07:12:00.799Z,2.53
2023-01-29T07:14:35.917Z,2.48
2023-01-29T07:17:08.039Z,2.40
2023-01-29T07:19:40.501Z,2.30
2023-01-29T07:22:12.480Z,2.57
2023-01-29T07:24:44.999Z,2.81
2023-01-29T07:27:16.841Z,2.91
2023-01-29T07:29:51.764Z,3.10
2023-01-29T07:32:23.950Z,2.83
2023-01-29T07:34:56.403Z,2.58
2023-01-29T07:37:28.260Z,2.61
2023-01-29T07:40:00.614Z,2.98
2023-01-29T07:42:32.460Z,2.94
2023-01-29T07:45:07.960Z,2.28
2023-01-29T07:47:40.198Z,2.55
2023-01-29T07:50:13.884Z,2.53
2023-01-29T07:52:58.016Z,3.00
2023-01-29T07:55:29.836Z,3.41
2023-01-29T07:58:02.432Z,3.08
2023-01-29T08:00:36.828Z,2.97
2023-01-29T08:03:10.708Z,2.87
2023-01-29T08:05:43.486Z,3.13
2023-01-29T08:08:15.905Z,2.60
2023-01-29T08:10:47.933Z,2.45
2023-01-29T08:13:19.781Z,2.89
2023-01-29T08:15:54.552Z,3.17
2023-01-29T08:18:26.321Z,2.64
2023-01-29T08:21:03.338Z,2.25
2023-01-29T08:23:35.299Z,2.55
2023-01-29T08:26:09.023Z,2.59
2023-01-29T08:28:41.981Z,2.88
2023-01-29T08:31:22.695Z,3.25
2023-01-29T08:34:12.391Z,2.82
2023-01-29T08:36:44.897Z,2.58
2023-01-29T08:39:16.949Z,2.44
2023-01-29T08:41:49.393Z,2.57
2023-01-29T08:44:21.716Z,2.39
2023-01-29T08:46:56.820Z,2.69
2023-01-29T08:49:28.888Z,3.10
2023-01-29T08:52:03.057Z,3.42
2023-01-29T08:54:36.057Z,3.46
2023-01-29T08:57:10.893Z,2.81
2023-01-29T08:59:43.021Z,2.15
2023-01-29T09:02:18.154Z,2.48
2023-01-29T09:04:50.250Z,3.00
2023-01-29T09:07:22.902Z,2.55
2023-01-29T09:09:55.739Z,2.35
2023-01-29T09:12:28.738Z,2.76
2023-01-29T09:15:00.907Z,2.80
2023-01-29T09:17:36.663Z,2.59
2023-01-29T09:20:10.550Z,2.73
2023-01-29T09:22:43.078Z,3.29
2023-01-29T09:25:16.016Z,3.17
2023-01-29T09:27:48.641Z,3.06
2023-01-29T09:30:22.042Z,3.19
2023-01-29T09:32:57.348Z,2.62
2023-01-29T09:38:28.140Z,3.33
2023-01-29T09:41:09.676Z,3.62
2023-01-29T09:43:52.465Z,3.15
2023-01-29T09:46:28.630Z,3.31
2023-01-29T09:49:10.721Z,3.91
2023-01-29T09:51:46.680Z,3.41
2023-01-29T09:54:26.645Z,3.80
2023-01-29T09:57:00.404Z,3.91
2023-01-29T09:59:35.422Z,3.95
2023-01-29T10:02:14.021Z,4.00
2023-01-29T10:05:12.101Z,4.13
2023-01-29T10:08:26.778Z,4.29
2023-01-29T10:11:09.893Z,4.28
2023-01-29T10:13:51.620Z,4.64
2023-01-29T10:16:44.584Z,3.85
2023-01-29T10:19:41.409Z,4.35
2023-01-29T10:22:45.192Z,4.07
2023-01-29T10:25:20.196Z,3.48
2023-01-29T10:27:54.732Z,4.24
2023-01-29T10:30:34.549Z,4.48
2023-01-29T10:33:08.948Z,4.57
2023-01-29T10:35:44.889Z,4.07
2023-01-29T10:38:31.634Z,3.73
2023-01-29T10:41:15.154Z,3.79
2023-01-29T10:43:58.849Z,3.45
2023-01-29T10:46:44.229Z,3.71
2023-01-29T10:49:30.034Z,4.61
2023-01-29T10:52:21.496Z,4.66
2023-01-29T10:55:07.970Z,4.47
2023-01-29T10:58:01.339Z,4.17
2023-01-29T11:00:41.652Z,4.09
2023-01-29T11:03:27.524Z,4.82
2023-01-29T11:06:15.415Z,4.70
2023-01-29T11:08:54.561Z,4.90
2023-01-29T11:11:49.891Z,3.69
2023-01-29T11:14:28.652Z,3.92
2023-01-29T11:17:00.844Z,4.68
2023-01-29T11:19:42.119Z,5.32
2023-01-29T11:22:38.320Z,4.40
2023-01-29T11:25:20.430Z,4.59
2023-01-29T11:28:05.710Z,4.33
2023-01-29T11:30:41.266Z,4.09
2023-01-29T11:33:21.988Z,4.85
2023-01-29T11:36:19.732Z,4.58
2023-01-29T11:39:22.439Z,5.50
2023-01-29T11:41:59.450Z,5.10
2023-01-29T11:44:54.814Z,4.85
2023-01-29T11:47:31.025Z,5.03
2023-01-29T11:50:05.752Z,5.33
2023-01-29T11:52:41.130Z,4.79
2023-01-29T11:55:21.416Z,5.28
2023-01-29T11:57:56.454Z,5.30
2023-01-29T12:00:34.733Z,5.63
2023-01-29T12:03:16.230Z,5.61
2023-01-29T12:05:59.264Z,5.67
2023-01-29T12:08:37.431Z,6.12
2023-01-29T12:11:16.052Z,5.44
2023-01-29T12:13:57.590Z,5.79
2023-01-29T12:16:36.793Z,5.91
2023-01-29T12:19:15.798Z,6.11
2023-01-29T12:21:54.412Z,5.91
2023-01-29T12:24:38.110Z,5.36
2023-01-29T12:27:17.890Z,5.37
2023-01-29T12:29:56.268Z,5.41
2023-01-29T12:32:38.613Z,5.52
2023-01-29T12:35:19.430Z,5.33
2023-01-29T12:38:01.894Z,5.64
2023-01-29T12:40:43.810Z,5.58
2023-01-29T12:43:21.530Z,5.54
2023-01-29T12:45:57.360Z,5.22
2023-01-29T12:48:37.076Z,4.56
2023-01-29T12:51:15.110Z,4.23
2023-01-29T12:54:03.518Z,4.59
2023-01-29T12:56:40.370Z,4.72
2023-01-29T12:59:20.672Z,4.85
2023-01-29T13:01:58.390Z,4.76
2023-01-29T13:04:43.796Z,5.16
2023-01-29T13:07:24.196Z,5.14
2023-01-29T13:10:01.098Z,5.40
2023-01-29T13:12:36.684Z,5.52
2023-01-29T13:15:20.802Z,4.52
2023-01-29T13:17:56.829Z,4.81
2023-01-29T13:20:37.804Z,4.58
2023-01-29T13:23:20.104Z,5.05
2023-01-29T13:25:55.216Z,5.12
2023-01-29T13:28:29.941Z,5.13
2023-01-29T13:31:21.664Z,4.77
2023-01-29T13:33:59.386Z,4.60
2023-01-29T13:36:35.273Z,4.15
2023-01-29T13:39:18.148Z,4.40
2023-01-29T13:41:50.444Z,5.27
2023-01-29T13:44:26.504Z,5.56
2023-01-29T13:47:02.015Z,4.73
2023-01-29T13:49:40.582Z,4.99
2023-01-29T13:52:31.001Z,4.44
2023-01-29T13:55:06.181Z,4.26
2023-01-29T13:57:55.860Z,3.80
2023-01-29T14:00:52.085Z,3.84
2023-01-29T14:04:05.922Z,4.86
2023-01-29T14:06:51.207Z,5.11
2023-01-29T14:10:07.828Z,4.21
2023-01-29T14:12:45.124Z,4.53
2023-01-29T14:15:33.559Z,4.28
2023-01-29T14:18:27.767Z,4.07
2023-01-29T14:21:08.843Z,4.15
2023-01-29T14:23:44.699Z,4.37
2023-01-29T14:26:30.995Z,4.53
2023-01-29T14:29:07.145Z,4.82
2023-01-29T14:31:47.917Z,4.70
2023-01-29T14:34:31.021Z,4.24
2023-01-29T14:37:07.115Z,4.18
2023-01-29T14:39:46.579Z,4.65
2023-01-29T14:42:26.976Z,4.62
2023-01-29T14:45:11.835Z,4.64
2023-01-29T14:48:25.244Z,4.82
2023-01-29T14:51:02.617Z,4.78
2023-01-29T14:54:02.101Z,4.39
2023-01-29T14:56:38.676Z,4.14
2023-01-29T14:59:23.212Z,4.21
2023-01-29T15:01:59.025Z,4.28
2023-01-29T15:04:33.870Z,3.89
2023-01-29T15:07:09.248Z,4.11
2023-01-29T15:09:49.055Z,4.48
2023-01-29T15:12:30.693Z,4.52
2023-01-29T15:15:13.526Z,4.29
2023-01-29T15:17:53.368Z,4.46
2023-01-29T15:20:35.040Z,4.65
2023-01-29T15:23:08.130Z,4.55
2023-01-29T15:25:50.021Z,4.41
2023-01-29T15:28:21.051Z,4.35
2023-01-29T15:30:59.545Z,4.36
2023-01-29T15:33:31.590Z,4.29
2023-01-29T15:36:08.041Z,4.35
2023-01-29T15:38:40.141Z,4.09
2023-01-29T15:41:21.714Z,4.43
2023-01-29T15:43:59.741Z,4.01
2023-01-29T15:46:37.157Z,3.76
2023-01-29T15:49:13.312Z,3.96
2023-01-29T15:51:45.616Z,3.71
2023-01-29T15:54:20.747Z,3.99
2023-01-29T15:56:55.272Z,4.23
2023-01-29T15:59:29.732Z,4.56
2023-01-29T16:02:21.876Z,4.49
2023-01-29T16:04:53.244Z,3.46
2023-01-29T16:07:25.396Z,3.71
2023-01-29T16:09:58.826Z,3.86
2023-01-29T16:12:31.245Z,4.19
2023-01-29T16:15:04.133Z,4.35
2023-01-29T16:17:44.354Z,4.33
2023-01-29T16:20:34.160Z,4.47
2023-01-29T16:23:06.679Z,4.30
2023-01-29T16:25:42.039Z,3.75
2023-01-29T16:28:14.550Z,3.68
2023-01-29T16:30:46.738Z,4.34
2023-01-29T16:33:21.632Z,4.33
2023-01-29T16:35:55.080Z,4.57
2023-01-29T16:38:33.272Z,4.61
2023-01-29T16:41:19.186Z,4.50
2023-01-29T16:43:56.537Z,4.21
2023-01-29T16:46:35.050Z,4.19
2023-01-29T16:49:47.454Z,3.85
2023-01-29T16:52:23.780Z,3.65
2023-01-29T16:54:57.089Z,3.90
2023-01-29T16:57:33.296Z,3.93
2023-01-29T17:00:10.403Z,3.70
2023-01-29T17:02:43.145Z,4.11
2023-01-29T17:05:25.795Z,3.94
2023-01-29T17:08:01.246Z,3.98
2023-01-29T17:10:36.302Z,4.41
2023-01-29T17:13:10.236Z,4.61
2023-01-29T17:15:49.124Z,4.05
2023-01-29T17:18:23.746Z,4.44
2023-01-29T17:21:01.055Z,4.18
2023-01-29T17:23:33.071Z,4.50
2023-01-29T17:26:07.444Z,4.65
2023-01-29T17:28:39.489Z,4.00
2023-01-29T17:31:12.030Z,4.02
2023-01-29T17:33:46.345Z,4.26
2023-01-29T17:36:21.635Z,4.39
2023-01-29T17:38:53.543Z,4.01
2023-01-29T17:41:28.989Z,3.88
2023-01-29T17:44:00.486Z,4.11
2023-01-29T17:46:32.565Z,4.46
2023-01-29T17:49:04.826Z,4.49
2023-01-29T17:51:39.398Z,4.06
2023-01-29T17:54:10.619Z,3.99
2023-01-29T17:56:42.846Z,4.20
2023-01-29T17:59:17.795Z,4.22
2023-01-29T18:01:50.167Z,4.29
2023-01-29T18:04:21.585Z,4.48
2023-01-29T18:06:57.379Z,4.28
2023-01-29T18:09:28.850Z,4.72
2023-01-29T18:12:00.729Z,4.93
2023-01-29T18:14:31.926Z,4.56
2023-01-29T18:17:03.633Z,4.54
2023-01-29T18:19:35.116Z,4.66
2023-01-29T18:22:09.724Z,4.43
2023-01-29T18:24:41.193Z,4.62
2023-01-29T18:27:13.086Z,4.64
2023-01-29T18:29:44.683Z,4.12
2023-01-29T18:32:16.195Z,4.63
2023-01-29T18:34:47.344Z,4.51
2023-01-29T18:37:21.551Z,4.18
2023-01-29T18:39:53.316Z,4.31
2023-01-29T18:42:25.039Z,4.48
2023-01-29T18:44:56.477Z,4.43
2023-01-29T18:47:28.122Z,4.13
2023-01-29T18:49:59.594Z,4.13
2023-01-29T18:52:34.686Z,3.88
2023-01-29T18:55:06.392Z,3.95
2023-01-29T18:58:33.444Z,4.33
2023-01-29T19:00:30.886Z,4.19
2023-01-29T19:03:02.795Z,4.37
2023-01-29T19:05:36.619Z,4.36
2023-01-29T19:08:11.414Z,4.47
2023-01-29T19:10:43.786Z,4.12
2023-01-29T19:13:15.688Z,4.59
2023-01-29T19:15:50.394Z,3.89
2023-01-29T19:18:22.351Z,4.17
2023-01-29T19:20:56.067Z,4.27
2023-01-29T19:23:30.341Z,4.19
2023-01-29T19:26:02.590Z,4.29
2023-01-29T19:28:34.692Z,4.18
2023-01-29T19:31:06.571Z,4.47
2023-01-29T19:33:39.402Z,4.24
2023-01-29T19:36:14.022Z,4.41
2023-01-29T19:38:49.478Z,4.18
2023-01-29T19:41:20.863Z,4.38
2023-01-29T19:43:53.909Z,4.51
2023-01-29T19:46:25.211Z,4.28
2023-01-29T19:48:59.001Z,4.41
2023-01-29T19:51:30.576Z,4.52
2023-01-29T19:54:06.623Z,4.43
2023-01-29T19:56:38.839Z,4.18
2023-01-29T19:59:10.505Z,4.35
2023-01-29T20:01:41.856Z,4.12
2023-01-29T20:04:14.500Z,4.33
2023-01-29T20:06:45.812Z,4.35
2023-01-29T20:09:20.238Z,4.53
2023-01-29T20:11:51.569Z,4.18
2023-01-29T20:14:23.724Z,4.14
2023-01-29T20:16:55.001Z,4.04
2023-01-29T20:19:26.585Z,3.69
2023-01-29T20:21:58.302Z,3.95
2023-01-29T20:24:34.963Z,4.32
2023-01-29T20:27:06.272Z,3.83
2023-01-29T20:29:38.059Z,3.83
2023-01-29T20:32:11.893Z,3.90
2023-01-29T20:34:44.086Z,4.25
2023-01-29T20:37:15.527Z,4.17
2023-01-29T20:39:49.989Z,4.07
2023-01-29T20:42:21.435Z,3.90
2023-01-29T20:44:54.038Z,3.79
2023-01-29T20:47:25.421Z,3.89
2023-01-29T20:49:57.089Z,3.97
2023-01-29T20:52:28.616Z,3.89
2023-01-29T20:55:03.167Z,3.97
2023-01-29T20:57:34.909Z,4.18
2023-01-29T21:00:06.981Z,4.30
2023-01-29T21:02:39.838Z,4.38
2023-01-29T21:05:12.027Z,4.36
2023-01-29T21:07:44.552Z,4.77
2023-01-29T21:10:19.955Z,4.43
2023-01-29T21:12:51.425Z,4.23
2023-01-29T21:15:24.939Z,4.39
2023-01-29T21:17:57.456Z,4.59
2023-01-29T21:20:29.749Z,4.36
2023-01-29T21:23:05.984Z,3.97
2023-01-29T21:25:42.729Z,4.67
2023-01-29T21:28:15.227Z,4.48
2023-01-29T21:30:48.035Z,4.51
2023-01-29T21:33:19.396Z,4.46
2023-01-29T21:36:00.525Z,4.11
2023-01-29T21:38:31.795Z,4.05
2023-01-29T21:41:08.958Z,3.87
2023-01-29T21:43:38.157Z,3.67
2023-01-29T21:46:12.354Z,3.97
2023-01-29T21:48:44.133Z,4.41
2023-01-29T21:51:17.286Z,4.24
2023-01-29T21:53:52.039Z,4.20
2023-01-29T21:56:25.938Z,4.20
2023-01-29T21:59:01.083Z,4.13
2023-01-29T22:01:37.760Z,4.37
2023-01-29T22:07:20.690Z,4.08
2023-01-29T22:09:52.524Z,3.90
2023-01-29T22:12:26.814Z,3.74
2023-01-29T22:14:58.686Z,3.73
2023-01-29T22:17:29.984Z,4.05
2023-01-29T22:20:01.695Z,4.20
2023-01-29T22:22:36.095Z,4.43
2023-01-29T22:25:09.067Z,4.42
2023-01-29T22:27:43.667Z,4.33
2023-01-29T22:30:17.110Z,3.78
2023-01-29T22:32:48.753Z,3.93
2023-01-29T22:35:20.815Z,3.94
2023-01-29T22:37:52.311Z,3.67
2023-01-29T22:40:24.060Z,3.96
2023-01-29T22:42:58.184Z,3.96
2023-01-29T22:45:30.147Z,4.16
2023-01-29T22:48:01.412Z,4.34
2023-01-29T22:50:33.840Z,4.42
2023-01-29T22:53:05.036Z,4.38
2023-01-29T22:55:36.692Z,4.11
2023-01-29T22:58:10.682Z,3.49
2023-01-29T23:00:42.137Z,3.81
2023-01-29T23:03:13.430Z,3.53
2023-01-29T23:05:45.028Z,3.51
2023-01-29T23:08:16.344Z,3.79
2023-01-29T23:10:47.883Z,3.82
2023-01-29T23:13:21.714Z,4.16
2023-01-29T23:16:02.223Z,4.31
2023-01-29T23:18:33.791Z,4.08
2023-01-29T23:21:05.463Z,4.01
2023-01-29T23:23:38.204Z,3.90
2023-01-29T23:26:35.219Z,3.90
2023-01-29T23:29:09.409Z,3.87
2023-01-29T23:31:41.291Z,3.77
2023-01-29T23:34:12.581Z,4.07
2023-01-29T23:36:44.382Z,4.07
2023-01-29T23:39:15.739Z,4.31
2023-01-29T23:41:47.593Z,4.38
2023-01-29T23:44:21.724Z,4.24
2023-01-29T23:46:54.082Z,3.89
2023-01-29T23:49:26.483Z,3.66
2023-01-29T23:51:58.463Z,3.86
2023-01-29T23:54:30.226Z,3.73
2023-01-29T23:57:02.200Z,3.59
2023-01-29T23:59:36.994Z,3.68
